createdAt,value
2017-03-23T03:39:05.022Z,21.14
2017-03-23T03:49:12.927Z,21.04
2017-03-23T03:50:23.202Z,21.14
2017-03-23T03:51:33.477Z,21.04
2017-03-23T03:52:43.742Z,21.24
2017-03-23T03:53:54.107Z,21.23
2017-03-23T03:55:04.685Z,21.15
2017-03-23T03:56:14.965Z,21.14
2017-03-23T03:57:24.932Z,21.14
2017-03-23T03:58:35.211Z,21.14
2017-03-23T03:59:45.165Z,21.14
2017-03-23T04:00:55.689Z,21.04
2017-03-23T04:02:05.341Z,21.05
2017-03-23T04:03:15.326Z,21.14
2017-03-23T04:04:25.281Z,21.33
2017-03-23T04:05:35.543Z,21.33
2017-03-23T04:06:45.754Z,21.33
2017-03-23T04:07:56.018Z,21.42
2017-03-23T04:09:05.971Z,21.23
2017-03-23T04:10:16.243Z,21.33
2017-03-23T04:11:26.508Z,21.33
2017-03-23T04:12:37.074Z,21.44
2017-03-23T04:13:47.034Z,21.42
2017-03-23T04:14:57.306Z,21.42
2017-03-23T04:16:07.257Z,21.33
2017-03-23T04:17:17.212Z,21.52
2017-03-23T04:18:27.734Z,21.33
2017-03-23T04:19:37.997Z,21.42
2017-03-23T04:20:47.945Z,21.71
2017-03-23T04:21:57.905Z,21.52
2017-03-23T04:23:08.175Z,21.81
2017-03-23T04:24:18.069Z,21.61
2017-03-23T04:25:28.028Z,21.61
2017-03-23T04:26:37.978Z,21.61
2017-03-23T04:27:47.950Z,21.61
2017-03-23T04:28:58.213Z,21.61
2017-03-23T04:30:08.785Z,21.71
2017-03-23T04:31:18.741Z,21.33
2017-03-23T04:32:28.391Z,21.81
2017-03-23T04:33:38.661Z,21.52
2017-03-23T04:34:48.619Z,21.81
2017-03-23T04:35:59.193Z,21.61
2017-03-23T04:37:09.463Z,21.71
2017-03-23T04:38:19.747Z,21.52
2017-03-23T04:39:30.021Z,21.52
2017-03-23T04:40:39.678Z,21.52
2017-03-23T04:41:50.197Z,21.52
2017-03-23T04:42:59.835Z,21.42
2017-03-23T04:44:09.472Z,21.81
2017-03-23T04:45:19.114Z,21.52
2017-03-23T04:46:29.388Z,21.61
2017-03-23T04:47:39.903Z,21.52
2017-03-23T04:48:50.173Z,21.81
2017-03-23T04:50:00.130Z,21.71
2017-03-23T04:51:10.404Z,21.62
2017-03-23T04:52:20.361Z,21.61
2017-03-23T04:53:30.256Z,21.61
2017-03-23T04:54:40.516Z,21.71
2017-03-23T04:55:50.778Z,21.61
2017-03-23T04:57:00.738Z,21.71
2017-03-23T04:58:10.391Z,21.81
2017-03-23T04:59:20.602Z,21.71
2017-03-23T05:00:30.877Z,21.81
2017-03-23T05:01:41.148Z,21.61
2017-03-23T05:02:51.421Z,21.71
2017-03-23T05:04:01.377Z,21.71
2017-03-23T05:05:11.316Z,21.81
2017-03-23T05:06:20.642Z,21.61
2017-03-23T05:07:30.907Z,21.71
2017-03-23T05:08:41.734Z,21.71
2017-03-23T05:09:51.694Z,22.09
2017-03-23T05:11:02.211Z,21.71
2017-03-23T05:12:12.187Z,21.42
2017-03-23T05:13:22.149Z,21.61
2017-03-23T05:14:32.113Z,21.61
2017-03-23T05:15:42.378Z,21.71
2017-03-23T05:16:52.328Z,21.62
2017-03-23T05:18:02.605Z,21.62
2017-03-23T05:19:12.868Z,21.42
2017-03-23T05:20:22.512Z,21.44
2017-03-23T05:21:33.086Z,21.34
2017-03-23T05:22:42.665Z,21.34
2017-03-23T05:23:52.931Z,21.34
2017-03-23T05:25:02.889Z,21.34
2017-03-23T05:26:12.850Z,21.44
2017-03-23T05:27:23.112Z,21.33
2017-03-23T05:28:33.631Z,21.44
2017-03-23T05:29:43.592Z,21.33
2017-03-23T05:30:53.864Z,21.42
2017-03-23T05:32:04.142Z,21.33
2017-03-23T05:33:14.415Z,21.33
2017-03-23T05:34:24.979Z,21.42
2017-03-23T05:35:34.635Z,21.33
2017-03-23T05:36:44.901Z,21.23
2017-03-23T05:37:55.181Z,21.14
2017-03-23T05:39:05.134Z,21.14
2017-03-23T05:40:15.694Z,21.15
2017-03-23T05:41:25.649Z,21.23
2017-03-23T05:42:35.618Z,21.24
2017-03-23T05:43:45.886Z,21.15
2017-03-23T05:44:55.850Z,21.24
2017-03-23T05:46:06.370Z,21.05
2017-03-23T05:47:16.015Z,21.15
2017-03-23T05:48:26.279Z,21.15
2017-03-23T05:49:36.588Z,21.24
2017-03-23T05:50:46.538Z,21.15
2017-03-23T05:51:57.066Z,21.23
2017-03-23T05:53:07.028Z,21.34
2017-03-23T05:54:17.292Z,21.05
2017-03-23T05:55:26.622Z,21.44
2017-03-23T05:56:35.967Z,21.33
2017-03-23T05:57:46.531Z,21.24
2017-03-23T05:58:56.499Z,21.04
2017-03-23T06:00:06.775Z,20.76
2017-03-23T06:01:17.272Z,21.05
2017-03-23T06:02:27.545Z,21.24
2017-03-23T06:03:38.073Z,21.23
2017-03-23T06:04:47.737Z,21.24
2017-03-23T06:05:58.008Z,21.15
2017-03-23T06:07:08.276Z,21.15
2017-03-23T06:08:18.543Z,21.53
2017-03-23T06:09:29.065Z,21.15
2017-03-23T06:10:39.042Z,21.14
2017-03-23T06:11:49.008Z,21.34
2017-03-23T06:12:59.282Z,21.05
2017-03-23T06:14:09.257Z,21.05
2017-03-23T06:15:19.504Z,21.05
2017-03-23T06:16:29.775Z,21.05
2017-03-23T06:17:40.048Z,21.05
2017-03-23T06:18:50.019Z,21.05
2017-03-23T06:20:00.290Z,21.14
2017-03-23T06:21:10.501Z,21.24
2017-03-23T06:22:20.794Z,21.24
2017-03-23T06:23:31.064Z,21.34
2017-03-23T06:24:41.339Z,21.34
2017-03-23T06:25:51.617Z,21.24
2017-03-23T06:27:02.185Z,21.15
2017-03-23T06:28:12.550Z,21.15
2017-03-23T06:29:22.505Z,21.15
2017-03-23T06:30:32.777Z,21.14
2017-03-23T06:31:42.430Z,21.15
2017-03-23T06:32:52.998Z,21.24
2017-03-23T06:34:03.382Z,21.23
2017-03-23T06:35:13.677Z,21.15
2017-03-23T06:36:23.947Z,21.24
2017-03-23T06:37:33.923Z,21.15
2017-03-23T06:38:44.445Z,21.24
2017-03-23T06:39:54.089Z,21.53
2017-03-23T06:41:04.367Z,21.04
2017-03-23T06:42:14.674Z,21.15
2017-03-23T06:43:24.640Z,21.23
2017-03-23T06:44:35.173Z,21.23
2017-03-23T06:45:45.451Z,21.24
2017-03-23T06:46:55.718Z,21.34
2017-03-23T06:48:05.994Z,21.61
2017-03-23T06:49:16.317Z,21.62
2017-03-23T06:50:26.560Z,21.53
2017-03-23T06:51:36.209Z,21.53
2017-03-23T06:52:46.186Z,21.44
2017-03-23T06:53:56.447Z,21.71
2017-03-23T06:55:06.406Z,21.53
2017-03-23T06:56:16.311Z,21.53
2017-03-23T06:57:26.276Z,21.72
2017-03-23T06:58:36.243Z,21.72
2017-03-23T06:59:45.910Z,21.82
2017-03-23T07:00:55.871Z,22.11
2017-03-23T07:02:06.402Z,21.92
2017-03-23T07:03:16.675Z,21.92
2017-03-23T07:04:26.656Z,22.2
2017-03-23T07:05:36.938Z,22.2
2017-03-23T07:06:47.295Z,22.2
2017-03-23T07:07:57.846Z,21.91
2017-03-23T07:09:08.128Z,21.92
2017-03-23T07:10:18.106Z,22.11
2017-03-23T07:11:28.391Z,22.11
2017-03-23T07:12:38.665Z,22.11
2017-03-23T07:13:48.878Z,22
2017-03-23T07:14:59.171Z,22.11
2017-03-23T07:16:09.454Z,22.2
2017-03-23T07:17:19.734Z,22.59
2017-03-23T07:18:30.005Z,22.58
2017-03-23T07:19:40.523Z,22.49
2017-03-23T07:20:51.042Z,22.3
2017-03-23T07:22:01.337Z,22.49
2017-03-23T07:23:11.310Z,22.69
2017-03-23T07:24:21.866Z,22.49
2017-03-23T07:25:32.439Z,22.59
2017-03-23T07:26:42.725Z,22.69
2017-03-23T07:27:52.701Z,22.78
2017-03-23T07:29:02.977Z,22.78
2017-03-23T07:30:13.243Z,22.78
2017-03-23T07:31:23.493Z,22.88
2017-03-23T07:32:33.786Z,22.78
2017-03-23T07:33:44.066Z,22.69
2017-03-23T07:34:54.039Z,22.97
2017-03-23T07:36:04.334Z,22.69
2017-03-23T07:37:14.872Z,22.88
2017-03-23T07:38:24.835Z,22.88
2017-03-23T07:39:35.122Z,22.88
2017-03-23T07:40:45.140Z,22.88
2017-03-23T07:41:55.423Z,22.69
2017-03-23T07:43:06.057Z,22.88
2017-03-23T07:44:16.352Z,22.88
2017-03-23T07:45:26.619Z,22.88
2017-03-23T07:46:36.611Z,22.97
2017-03-23T07:47:46.567Z,23.16
2017-03-23T07:48:56.788Z,22.78
2017-03-23T07:50:06.437Z,22.78
2017-03-23T07:51:16.103Z,22.88
2017-03-23T07:52:26.064Z,22.88
2017-03-23T07:53:36.383Z,22.88
2017-03-23T07:54:46.993Z,22.78
2017-03-23T07:55:57.336Z,22.69
2017-03-23T07:57:07.314Z,22.97
2017-03-23T07:58:17.314Z,22.97
2017-03-23T07:59:27.628Z,22.97
2017-03-23T08:00:38.177Z,22.97
2017-03-23T08:01:48.469Z,23.07
2017-03-23T08:02:58.775Z,23.07
2017-03-23T08:04:09.066Z,23.07
2017-03-23T08:05:18.717Z,23.07
2017-03-23T08:06:29.582Z,23.07
2017-03-23T08:07:39.904Z,22.97
2017-03-23T08:08:49.652Z,22.97
2017-03-23T08:09:59.977Z,22.97
2017-03-23T08:11:10.267Z,22.97
2017-03-23T08:12:21.091Z,23.07
2017-03-23T08:13:31.380Z,23.07
2017-03-23T08:14:41.359Z,23.07
2017-03-23T08:15:51.335Z,23.07
2017-03-23T08:17:01.640Z,23.07
2017-03-23T08:18:11.855Z,23.07
2017-03-23T08:19:21.883Z,22.97
2017-03-23T08:20:31.875Z,22.97
2017-03-23T08:21:42.177Z,22.97
2017-03-23T08:22:52.443Z,23.07
2017-03-23T08:24:02.979Z,23.07
2017-03-23T08:25:13.259Z,23.07
2017-03-23T08:26:23.588Z,23.18
2017-03-23T08:27:33.896Z,23.07
2017-03-23T08:28:44.501Z,23.07
2017-03-23T08:29:55.042Z,22.97
2017-03-23T08:31:05.029Z,23.07
2017-03-23T08:32:15.368Z,22.88
2017-03-23T08:33:25.663Z,23.08
2017-03-23T08:34:35.940Z,22.97
2017-03-23T08:35:46.207Z,22.88
2017-03-23T08:36:56.768Z,23.46
2017-03-23T08:38:06.726Z,23.36
2017-03-23T08:39:16.994Z,23.36
2017-03-23T08:40:27.277Z,23.46
2017-03-23T08:41:37.790Z,23.46
2017-03-23T08:42:47.754Z,23.26
2017-03-23T08:43:58.035Z,23.26
2017-03-23T08:45:08.327Z,23.37
2017-03-23T08:46:18.302Z,23.26
2017-03-23T08:47:28.558Z,23.26
2017-03-23T08:48:38.889Z,23.26
2017-03-23T08:49:49.160Z,23.36
2017-03-23T08:50:59.437Z,23.27
2017-03-23T08:52:09.896Z,23.27
2017-03-23T08:53:20.847Z,23.27
2017-03-23T08:54:31.311Z,23.27
2017-03-23T08:55:42.459Z,23.18
2017-03-23T08:56:53.841Z,23.26
2017-03-23T08:58:04.154Z,23.37
2017-03-23T08:59:14.066Z,23.55
2017-03-23T09:00:24.361Z,23.75
2017-03-23T09:01:34.667Z,23.75
2017-03-23T09:02:44.826Z,23.85
2017-03-23T09:03:55.104Z,23.85
2017-03-23T09:05:05.330Z,23.75
2017-03-23T09:06:15.551Z,23.66
2017-03-23T09:07:25.823Z,23.66
2017-03-23T09:08:36.109Z,23.75
2017-03-23T09:09:46.421Z,23.75
2017-03-23T09:10:57.052Z,23.85
2017-03-23T09:12:07.391Z,23.94
2017-03-23T09:13:17.099Z,24.14
2017-03-23T09:14:27.403Z,24.32
2017-03-23T09:15:37.387Z,24.33
2017-03-23T09:16:47.989Z,24.04
2017-03-23T09:17:58.316Z,23.94
2017-03-23T09:19:08.293Z,23.94
2017-03-23T09:20:18.283Z,23.85
2017-03-23T09:21:28.576Z,24.33
2017-03-23T09:22:39.127Z,24.33
2017-03-23T09:23:49.109Z,24.23
2017-03-23T09:24:58.779Z,24.14
2017-03-23T09:26:09.061Z,24.14
2017-03-23T09:27:19.377Z,24.04
2017-03-23T09:28:29.952Z,24.33
2017-03-23T09:29:40.280Z,24.43
2017-03-23T09:30:50.256Z,24.43
2017-03-23T09:32:00.528Z,24.71
2017-03-23T09:33:10.803Z,24.71
2017-03-23T09:34:21.343Z,24.7
2017-03-23T09:35:31.646Z,24.9
2017-03-23T09:36:41.681Z,24.43
2017-03-23T09:37:51.922Z,24.62
2017-03-23T09:39:01.895Z,24.71
2017-03-23T09:40:12.140Z,24.43
2017-03-23T09:41:22.419Z,24.81
2017-03-23T09:42:32.077Z,24.62
2017-03-23T09:43:42.072Z,24.81
2017-03-23T09:44:51.731Z,24.71
2017-03-23T09:46:01.951Z,24.81
2017-03-23T09:47:11.935Z,24.81
2017-03-23T09:48:21.922Z,24.62
2017-03-23T09:49:31.947Z,25.01
2017-03-23T09:50:41.926Z,24.81
2017-03-23T09:51:52.152Z,24.81
2017-03-23T09:53:02.433Z,25.2
2017-03-23T09:54:12.738Z,25.2
2017-03-23T09:55:22.740Z,24.71
2017-03-23T09:56:33.150Z,24.81
2017-03-23T09:57:43.774Z,24.71
2017-03-23T09:58:53.449Z,24.81
2017-03-23T10:00:03.756Z,24.81
2017-03-23T10:01:13.426Z,24.81
2017-03-23T10:02:23.395Z,25.01
2017-03-23T10:03:33.653Z,25.1
2017-03-23T10:04:43.317Z,24.71
2017-03-23T10:05:53.006Z,24.81
2017-03-23T10:07:02.989Z,24.71
2017-03-23T10:08:13.264Z,24.71
2017-03-23T10:09:23.791Z,25.2
2017-03-23T10:10:34.075Z,25.2
2017-03-23T10:11:43.421Z,24.71
2017-03-23T10:12:53.717Z,25.01
2017-03-23T10:14:03.374Z,24.81
2017-03-23T10:15:13.907Z,24.91
2017-03-23T10:16:23.556Z,25.29
2017-03-23T10:17:33.524Z,25.1
2017-03-23T10:18:43.789Z,25.01
2017-03-23T10:19:53.746Z,25.01
2017-03-23T10:21:04.014Z,25.11
2017-03-23T10:22:14.045Z,25.1
2017-03-23T10:23:24.017Z,25.01
2017-03-23T10:24:33.664Z,24.91
2017-03-23T10:25:43.316Z,24.91
2017-03-23T10:26:53.911Z,24.81
2017-03-23T10:28:04.200Z,24.91
2017-03-23T10:29:14.463Z,24.92
2017-03-23T10:30:24.746Z,24.92
2017-03-23T10:31:35.083Z,24.71
2017-03-23T10:32:45.622Z,24.73
2017-03-23T10:33:55.899Z,24.91
2017-03-23T10:35:06.190Z,24.92
2017-03-23T10:36:16.155Z,25.2
2017-03-23T10:37:26.428Z,25.01
2017-03-23T10:38:37.004Z,25.39
2017-03-23T10:39:47.285Z,25.1
2017-03-23T10:40:57.251Z,25.1
2017-03-23T10:42:07.553Z,25.29
2017-03-23T10:43:17.557Z,25.29
2017-03-23T10:44:28.091Z,25.2
2017-03-23T10:45:38.400Z,25.29
2017-03-23T10:46:48.403Z,25.29
2017-03-23T10:47:58.713Z,25.39
2017-03-23T10:49:09.056Z,25.29
2017-03-23T10:50:19.311Z,25.29
2017-03-23T10:51:29.614Z,25.1
2017-03-23T10:52:40.151Z,25.2
2017-03-23T10:53:50.496Z,25.29
2017-03-23T10:55:00.821Z,25.48
2017-03-23T10:56:11.396Z,25.39
2017-03-23T10:57:21.367Z,25.29
2017-03-23T10:58:31.655Z,25.58
2017-03-23T10:59:42.504Z,25.68
2017-03-23T11:00:52.527Z,25.48
2017-03-23T11:02:03.053Z,25.68
2017-03-23T11:03:13.067Z,25.58
2017-03-23T11:04:23.354Z,25.48
2017-03-23T11:05:33.696Z,25.58
2017-03-23T11:06:43.694Z,25.58
2017-03-23T11:07:53.334Z,25.68
2017-03-23T11:09:03.621Z,25.29
2017-03-23T11:10:13.614Z,25.29
2017-03-23T11:11:23.283Z,25.48
2017-03-23T11:12:33.290Z,25.29
2017-03-23T11:13:43.560Z,25.29
2017-03-23T11:14:53.876Z,25.1
2017-03-23T11:16:03.869Z,25.29
2017-03-23T11:17:13.850Z,25.39
2017-03-23T11:18:23.502Z,25.29
2017-03-23T11:19:34.093Z,25.2
2017-03-23T11:20:44.099Z,25.1
2017-03-23T11:21:54.392Z,25.29
2017-03-23T11:23:04.349Z,24.91
2017-03-23T11:24:14.308Z,25.01
2017-03-23T11:25:24.540Z,25.1
2017-03-23T11:26:34.530Z,25.1
2017-03-23T11:27:44.869Z,25.1
2017-03-23T11:28:55.166Z,24.91
2017-03-23T11:30:05.457Z,24.71
2017-03-23T11:31:15.707Z,25.2
2017-03-23T11:32:25.700Z,24.91
2017-03-23T11:33:35.457Z,25.01
2017-03-23T11:34:45.766Z,24.81
2017-03-23T11:35:56.060Z,24.71
2017-03-23T11:37:06.683Z,24.71
2017-03-23T11:38:16.961Z,24.91
2017-03-23T11:39:27.291Z,24.71
2017-03-23T11:40:37.584Z,24.81
2017-03-23T11:41:47.576Z,24.62
2017-03-23T11:42:57.851Z,24.52
2017-03-23T11:44:08.152Z,24.71
2017-03-23T11:45:18.425Z,24.52
2017-03-23T11:46:28.709Z,24.43
2017-03-23T11:47:38.672Z,24.43
2017-03-23T11:48:49.260Z,24.41
2017-03-23T11:49:59.537Z,24.52
2017-03-23T11:51:09.507Z,24.33
2017-03-23T11:52:19.807Z,24.04
2017-03-23T11:53:29.459Z,24.04
2017-03-23T11:54:39.671Z,24.04
2017-03-23T11:55:49.311Z,24.03
2017-03-23T11:56:59.586Z,24.14
2017-03-23T11:58:09.550Z,24.03
2017-03-23T11:59:19.904Z,23.93
2017-03-23T12:00:30.150Z,24.14
2017-03-23T12:01:40.136Z,24.13
2017-03-23T12:02:49.478Z,24.03
2017-03-23T12:03:59.759Z,24.04
2017-03-23T12:05:10.044Z,24.03
2017-03-23T12:06:20.566Z,23.93
2017-03-23T12:07:30.548Z,23.93
2017-03-23T12:08:40.823Z,24.03
2017-03-23T12:09:50.484Z,24.03
2017-03-23T12:10:59.822Z,24.13
2017-03-23T12:12:10.448Z,24.13
2017-03-23T12:13:20.745Z,24.32
2017-03-23T12:14:31.037Z,24.22
2017-03-23T12:15:41.343Z,24.22
2017-03-23T12:16:51.627Z,24.13
2017-03-23T12:18:02.165Z,24.23
2017-03-23T12:19:12.127Z,24.13
2017-03-23T12:20:22.397Z,24.41
2017-03-23T12:21:32.686Z,24.41
2017-03-23T12:22:42.646Z,24.23
2017-03-23T12:23:53.216Z,24.32
2017-03-23T12:25:03.504Z,24.23
2017-03-23T12:26:13.196Z,24.32
2017-03-23T12:27:23.502Z,24.41
2017-03-23T12:28:33.190Z,24.22
2017-03-23T12:29:43.707Z,24.41
2017-03-23T12:30:54.022Z,24.32
2017-03-23T12:32:04.309Z,24.32
2017-03-23T12:33:14.618Z,23.84
2017-03-23T12:34:24.587Z,24.22
2017-03-23T12:35:35.113Z,24.32
2017-03-23T12:36:45.438Z,24.41
2017-03-23T12:37:55.110Z,24.33
2017-03-23T12:39:05.404Z,24.41
2017-03-23T12:40:15.365Z,24.43
2017-03-23T12:41:25.323Z,24.22
2017-03-23T12:42:34.973Z,24.41
2017-03-23T12:43:44.939Z,24.14
2017-03-23T12:44:54.894Z,24.43
2017-03-23T12:46:04.851Z,24.03
2017-03-23T12:47:14.449Z,24.03
2017-03-23T12:48:24.437Z,24.03
2017-03-23T12:49:33.774Z,24.13
2017-03-23T12:50:44.056Z,24.04
2017-03-23T12:51:54.316Z,24.03
2017-03-23T12:53:04.531Z,24.33
2017-03-23T12:54:14.823Z,24.33
2017-03-23T12:55:25.102Z,24.04
2017-03-23T12:56:35.372Z,24.43
2017-03-23T12:57:45.650Z,24.23
2017-03-23T12:58:55.862Z,24.04
2017-03-23T13:00:05.815Z,24.41
2017-03-23T13:01:15.469Z,24.52
2017-03-23T13:02:25.532Z,24.7
2017-03-23T13:03:35.560Z,24.32
2017-03-23T13:04:46.141Z,24.61
2017-03-23T13:05:55.801Z,24.51
2017-03-23T13:07:05.773Z,24.71
2017-03-23T13:08:15.741Z,24.99
2017-03-23T13:09:26.025Z,24.7
2017-03-23T13:10:36.574Z,24.71
2017-03-23T13:11:46.855Z,24.81
2017-03-23T13:12:56.816Z,24.81
2017-03-23T13:14:07.100Z,24.91
2017-03-23T13:15:17.373Z,24.91
2017-03-23T13:16:27.957Z,24.71
2017-03-23T13:17:37.925Z,24.91
2017-03-23T13:18:47.583Z,25.01
2017-03-23T13:19:57.269Z,24.91
2017-03-23T13:21:06.941Z,24.81
2017-03-23T13:22:17.467Z,24.91
2017-03-23T13:23:27.736Z,24.91
2017-03-23T13:24:38.008Z,24.71
2017-03-23T13:25:47.983Z,25.1
2017-03-23T13:26:58.257Z,25.01
2017-03-23T13:28:08.786Z,25.29
2017-03-23T13:29:18.437Z,25.2
2017-03-23T13:30:28.707Z,25.48
2017-03-23T13:31:38.357Z,25.48
2017-03-23T13:32:48.313Z,25.58
2017-03-23T13:33:58.585Z,25.68
2017-03-23T13:35:08.556Z,25.58
2017-03-23T13:36:18.853Z,25.87
2017-03-23T13:37:28.507Z,25.78
2017-03-23T13:38:38.810Z,25.68
2017-03-23T13:39:49.040Z,25.68
2017-03-23T13:40:59.317Z,25.58
2017-03-23T13:42:09.586Z,25.68
2017-03-23T13:43:19.866Z,26.06
2017-03-23T13:44:29.832Z,25.78
2017-03-23T13:45:40.352Z,25.87
2017-03-23T13:46:50.313Z,25.87
2017-03-23T13:48:00.587Z,25.78
2017-03-23T13:49:10.854Z,25.78
2017-03-23T13:50:20.534Z,25.96
2017-03-23T13:51:31.313Z,26.06
2017-03-23T13:52:41.311Z,26.06
2017-03-23T13:53:50.976Z,26.06
2017-03-23T13:55:01.272Z,26.25
2017-03-23T13:56:11.241Z,26.45
2017-03-23T13:57:21.160Z,26.35
2017-03-23T13:58:31.440Z,26.35
2017-03-23T13:59:41.436Z,26.54
2017-03-23T14:00:51.414Z,26.45
2017-03-23T14:02:01.058Z,26.93
2017-03-23T14:03:11.270Z,26.73
2017-03-23T14:04:21.553Z,26.54
2017-03-23T14:05:31.517Z,26.54
2017-03-23T14:06:41.785Z,26.45
2017-03-23T14:07:51.746Z,26.25
2017-03-23T14:09:01.959Z,26.25
2017-03-23T14:10:11.916Z,26.25
2017-03-23T14:11:21.921Z,26.25
2017-03-23T14:12:31.598Z,26.35
2017-03-23T14:13:41.562Z,26.25
2017-03-23T14:14:52.150Z,26.45
2017-03-23T14:16:02.416Z,26.35
2017-03-23T14:17:12.401Z,26.35
2017-03-23T14:18:22.667Z,26.25
2017-03-23T14:19:32.939Z,26.16
2017-03-23T14:20:43.519Z,26.06
2017-03-23T14:21:53.783Z,26.25
2017-03-23T14:23:03.752Z,26.06
2017-03-23T14:24:13.404Z,26.16
2017-03-23T14:25:23.686Z,25.87
2017-03-23T14:26:34.210Z,25.78
2017-03-23T14:27:44.179Z,25.78
2017-03-23T14:28:54.469Z,25.78
2017-03-23T14:30:04.752Z,25.96
2017-03-23T14:31:15.023Z,25.87
2017-03-23T14:32:25.226Z,25.68
2017-03-23T14:33:35.576Z,25.78
2017-03-23T14:34:45.536Z,25.68
2017-03-23T14:35:55.815Z,25.78
2017-03-23T14:37:05.458Z,25.68
2017-03-23T14:38:16.006Z,25.58
2017-03-23T14:39:26.273Z,25.58
2017-03-23T14:40:35.928Z,25.29
2017-03-23T14:41:45.884Z,25.29
2017-03-23T14:42:55.867Z,25.1
2017-03-23T14:44:06.104Z,25.1
2017-03-23T14:45:16.396Z,25.18
2017-03-23T14:46:26.694Z,25.39
2017-03-23T14:47:36.966Z,25.29
2017-03-23T14:48:46.932Z,25.48
2017-03-23T14:49:57.469Z,24.81
2017-03-23T14:51:07.168Z,25.01
2017-03-23T14:52:16.818Z,24.81
2017-03-23T14:53:26.809Z,25.01
2017-03-23T14:54:37.083Z,25.1
2017-03-23T14:55:47.670Z,24.9
2017-03-23T14:56:57.309Z,24.81
2017-03-23T14:58:07.286Z,25.39
2017-03-23T14:59:17.262Z,24.81
2017-03-23T15:00:27.227Z,25.01
2017-03-23T15:01:37.460Z,25.01
2017-03-23T15:02:47.417Z,25.1
2017-03-23T15:03:57.714Z,25.01
2017-03-23T15:05:07.680Z,25.09
2017-03-23T15:06:17.651Z,25.1
2017-03-23T15:07:27.942Z,24.91
2017-03-23T15:08:38.243Z,25.09
2017-03-23T15:09:48.526Z,25.1
2017-03-23T15:10:58.800Z,25.2
2017-03-23T15:12:09.091Z,24.71
2017-03-23T15:13:19.637Z,24.81
2017-03-23T15:14:29.939Z,24.81
2017-03-23T15:15:40.220Z,24.7
2017-03-23T15:16:50.505Z,25.1
2017-03-23T15:18:00.794Z,24.71
2017-03-23T15:19:11.027Z,24.71
2017-03-23T15:20:20.986Z,24.7
2017-03-23T15:21:30.969Z,24.71
2017-03-23T15:22:41.254Z,24.91
2017-03-23T15:23:51.223Z,24.7
2017-03-23T15:25:01.765Z,24.33
2017-03-23T15:26:12.043Z,24.43
2017-03-23T15:27:22.323Z,24.43
2017-03-23T15:28:32.610Z,24.62
2017-03-23T15:29:42.270Z,24.51
2017-03-23T15:30:52.794Z,24.43
2017-03-23T15:32:03.082Z,24.52
2017-03-23T15:33:13.358Z,24.52
2017-03-23T15:34:23.639Z,24.51
2017-03-23T15:35:33.603Z,24.51
2017-03-23T15:36:43.823Z,24.32
2017-03-23T15:37:54.100Z,24.32
2017-03-23T15:39:03.755Z,24.04
2017-03-23T15:40:14.042Z,24.14
2017-03-23T15:41:24.025Z,24.43
2017-03-23T15:42:34.254Z,24.22
2017-03-23T15:43:44.249Z,24.41
2017-03-23T15:44:53.927Z,24.41
2017-03-23T15:46:03.912Z,24.41
2017-03-23T15:47:14.242Z,24.41
2017-03-23T15:48:24.207Z,24.41
2017-03-23T15:49:34.195Z,24.33
2017-03-23T15:50:44.482Z,23.84
2017-03-23T15:51:54.797Z,23.84
2017-03-23T15:53:04.775Z,24.03
2017-03-23T15:54:15.353Z,24.03
2017-03-23T15:55:25.350Z,24.13
2017-03-23T15:56:35.643Z,24.03
2017-03-23T15:57:45.916Z,24.03
2017-03-23T15:58:55.582Z,24.03
2017-03-23T16:00:05.888Z,24.22
2017-03-23T16:01:15.868Z,23.84
2017-03-23T16:02:26.170Z,23.85
2017-03-23T16:03:36.469Z,23.84
2017-03-23T16:04:46.127Z,23.84
2017-03-23T16:05:56.350Z,23.74
2017-03-23T16:07:05.693Z,23.84
2017-03-23T16:08:15.993Z,23.74
2017-03-23T16:09:25.992Z,23.74
2017-03-23T16:10:36.285Z,23.84
2017-03-23T16:11:46.837Z,23.74
2017-03-23T16:12:57.237Z,23.75
2017-03-23T16:14:07.544Z,23.84
2017-03-23T16:15:17.846Z,23.93
2017-03-23T16:16:27.867Z,23.93
2017-03-23T16:17:38.471Z,23.84
2017-03-23T16:18:48.791Z,23.84
2017-03-23T16:19:59.084Z,23.65
2017-03-23T16:21:09.366Z,23.65
2017-03-23T16:22:19.032Z,23.46
2017-03-23T16:23:29.605Z,23.16
2017-03-23T16:24:39.581Z,23.26
2017-03-23T16:25:49.893Z,23.26
2017-03-23T16:27:00.203Z,23.26
2017-03-23T16:28:10.508Z,23.36
2017-03-23T16:29:21.055Z,23.26
2017-03-23T16:30:31.383Z,22.97
2017-03-23T16:31:41.388Z,23.16
2017-03-23T16:32:51.619Z,23.16
2017-03-23T16:34:01.956Z,22.97
2017-03-23T16:35:12.244Z,23.07
2017-03-23T16:36:22.613Z,22.97
2017-03-23T16:37:32.611Z,22.88
2017-03-23T16:38:42.635Z,22.79
2017-03-23T16:39:52.941Z,23.07
2017-03-23T16:41:03.507Z,22.97
2017-03-23T16:42:13.788Z,22.97
2017-03-23T16:43:23.817Z,23.07
2017-03-23T16:44:34.143Z,23.07
2017-03-23T16:45:44.148Z,22.97
2017-03-23T16:46:54.776Z,23.07
2017-03-23T16:48:05.081Z,22.88
2017-03-23T16:49:15.389Z,22.88
2017-03-23T16:50:25.738Z,23.07
2017-03-23T16:51:36.099Z,22.97
2017-03-23T16:52:46.337Z,23.07
2017-03-23T16:53:56.079Z,23.07
2017-03-23T16:55:06.106Z,23.07
2017-03-23T16:56:16.515Z,23.07
2017-03-23T16:57:26.837Z,23.07
2017-03-23T16:58:37.095Z,22.97
2017-03-23T16:59:47.429Z,22.97
2017-03-23T17:00:57.107Z,23.07
2017-03-23T17:02:07.155Z,23.07
2017-03-23T17:03:17.153Z,23.07
2017-03-23T17:04:27.780Z,22.97
2017-03-23T17:05:37.782Z,23.26
2017-03-23T17:06:47.800Z,23.46
2017-03-23T17:07:58.111Z,23.26
2017-03-23T17:09:08.437Z,23.26
2017-03-23T17:10:18.411Z,23.36
2017-03-23T17:11:28.740Z,23.16
2017-03-23T17:12:38.772Z,23.26
2017-03-23T17:13:49.127Z,23.16
2017-03-23T17:14:59.139Z,23.46
2017-03-23T17:16:09.748Z,22.97
2017-03-23T17:17:20.094Z,22.97
2017-03-23T17:18:30.153Z,22.97
2017-03-23T17:19:39.865Z,23.46
2017-03-23T17:20:50.186Z,23.07
2017-03-23T17:22:00.857Z,22.97
2017-03-23T17:23:11.179Z,22.97
2017-03-23T17:24:21.173Z,22.88
2017-03-23T17:25:30.895Z,22.69
2017-03-23T17:26:41.199Z,22.88
2017-03-23T17:27:51.531Z,22.88
2017-03-23T17:29:01.908Z,22.78
2017-03-23T17:30:12.234Z,22.69
2017-03-23T17:31:22.586Z,22.49
2017-03-23T17:32:32.917Z,22.49
2017-03-23T17:33:43.548Z,22.59
2017-03-23T17:34:53.537Z,22.3
2017-03-23T17:36:03.571Z,22.01
2017-03-23T17:37:13.262Z,22.39
2017-03-23T17:38:23.595Z,22.59
2017-03-23T17:39:33.920Z,22.49
2017-03-23T17:40:43.601Z,22.39
2017-03-23T17:41:53.913Z,22.49
2017-03-23T17:43:03.916Z,22.2
2017-03-23T17:44:13.318Z,22.11
2017-03-23T17:45:23.605Z,22.2
2017-03-23T17:46:33.906Z,22.01
2017-03-23T17:47:44.267Z,22.01
2017-03-23T17:48:54.596Z,22.11
2017-03-23T17:50:04.903Z,22.11
2017-03-23T17:51:18.368Z,22.11
2017-03-23T17:52:28.713Z,22.39
2017-03-23T17:53:38.380Z,22.2
2017-03-23T17:54:48.406Z,22.11
2017-03-23T17:55:58.432Z,22.2
2017-03-23T17:57:08.489Z,21.92
2017-03-23T17:58:19.047Z,22.39
2017-03-23T17:59:29.401Z,22.11
2017-03-23T18:00:39.732Z,22.11
2017-03-23T18:01:49.731Z,22.01
2017-03-23T18:03:00.382Z,22.11
2017-03-23T18:04:10.725Z,22.2
2017-03-23T18:05:21.059Z,22.11
2017-03-23T18:06:31.091Z,21.92
2017-03-23T18:07:40.819Z,22.3
2017-03-23T18:08:50.737Z,21.82
2017-03-23T18:10:01.108Z,22.11
2017-03-23T18:11:11.091Z,21.92
2017-03-23T18:12:21.131Z,22.2
2017-03-23T18:13:31.452Z,22.11
2017-03-23T18:14:42.034Z,21.92
2017-03-23T18:15:52.072Z,22.11
2017-03-23T18:17:02.057Z,22.2
2017-03-23T18:18:12.107Z,22.2
2017-03-23T18:19:22.413Z,22.11
2017-03-23T18:20:32.718Z,21.92
2017-03-23T18:21:42.750Z,21.82
2017-03-23T18:22:53.150Z,22.2
2017-03-23T18:24:02.889Z,22.01
2017-03-23T18:25:12.956Z,22.39
2017-03-23T18:26:23.556Z,22.3
2017-03-23T18:27:33.296Z,22.11
2017-03-23T18:28:43.635Z,22.11
2017-03-23T18:29:53.681Z,22.3
2017-03-23T18:31:04.034Z,22.11
2017-03-23T18:32:14.274Z,22.01
2017-03-23T18:33:24.308Z,21.82
2017-03-23T18:34:33.706Z,22.01
2017-03-23T18:35:43.735Z,21.92
2017-03-23T18:36:54.080Z,21.82
2017-03-23T18:38:03.795Z,22.01
2017-03-23T18:39:13.837Z,21.92
2017-03-23T18:40:23.524Z,21.92
2017-03-23T18:41:33.905Z,22.01
2017-03-23T18:42:44.280Z,22.11
2017-03-23T18:43:54.919Z,22.01
2017-03-23T18:45:05.253Z,21.92
2017-03-23T18:46:15.601Z,21.92
2017-03-23T18:47:25.956Z,21.92
2017-03-23T18:48:36.008Z,22.11
2017-03-23T18:49:46.286Z,22.2
2017-03-23T18:50:56.638Z,22.11
2017-03-23T18:52:06.990Z,22.3
2017-03-23T18:53:17.328Z,21.92